Aviation Digital Data Service (ADDS)

Output produced by METARs form (1539 UTC 20 May 2018)
found at http://aviationweather.gov/adds/metars/
 
KCAK 201134Z 2012/2112 29006KT P6SM OVC010 
     TEMPO 2012/2016 OVC008 
     FM201600 34005KT P6SM BKN025 
     FM202000 36006KT P6SM BKN035